Kearney, Arkansas
Current Conditions -  °F | °C
As of 9:53 AM on Thursday 27 Nov 2014 (Local Time) from KLIT Reporting Station
Scattered Clouds Scattered Clouds  
Wind Chill: 40°   Ceiling: Unl
Heat Index: 43°   Visibility: 10mi
Dew Point: 24°   Wind: 5mph
Humidity: 47%   Direction: NA
Pressure: 30.57"   Gusts: NA
Location:  34.4462°N, 92.1621°W
Report Text: KLIT 271553Z VRB04KT 10SM FEW030 SCT250 06/M04 A3057 RMK AO2 SLP355 T00611044
Loading
Personal Weather Stations






























Interactive Weather Map New forecast layout! Learn more

10-Day Weather Forecast

Advertisements
Track Severe Weather on mobile